Soaring Guidance
Issued by NWS Reno, NV

Home | Current Version | Previous Version | Text Only | Print | Product List | Glossary On
Versions: 1 2 3 4 5 6 7 8 9 10 11 12 13
000
UXUS97 KREV 221352
SRGREV

SOARING FORECAST
NATIONAL WEATHER SERVICE - RENO NV
700 AM PDT WED MAR 22 2017

THIS SOARING FORECAST IS FOR THE EASTERN SIERRA AND WESTERN NEVADA
WITH SPECIFIC INDICES FOR THE GREATER RENO AREA.

THIS FORECAST IS PREPARED DAILY BY 700 AM AND IS NOT UPDATED.

FOR CURRENT FLIGHT CONDITIONS...FORECASTS...AND ADVISORIES...ACCESS
YOUR LOCAL BRIEFING OUTLET OR FLIGHT SERVICE STATION.

*******************************************************************
FORECASTED LOCAL INDICES FOR RENO:        TODAY     YESTERDAY
FORECASTED MAX TEMP AT RENO (DEG F).....     55
FORECASTED TRIGGER TEMPERATURE (DEG F)..     47          59
   EXCEEDED YESTERDAY BY
FORECASTED MAXIMUM ALTITUDE (FT MSL)....  11800       15200
FORECASTED SOARING INDEX (FPM)..........    564         906
FORECASTED K-INDEX.........VALID 18Z....     29          34
FORECASTED K-INDEX.........VALID 00Z....     26          27
FORECASTED LIFTED INDEX....VALID 18Z....      1          -1
FORECASTED LIFTED INDEX....VALID 00Z....      0           0

AFTERNOON WINDS ALOFT FORECAST
MSL (FT) WIND/TEMP
9000  2520/-05
10000 2419/-07
12000 2416/-12
14000 2316/-16
16000 2316/-21
18000 2314/-26
24000 1909/-40
30000 2031/-50
34000 2141/-47
39000 2245/-46

SLIDE MOUNTAIN DATA:
     DATE       TIME     TEMP  DEWPT   RH         WIND (MPH)
                        (F)   (F)           | DIR  SPEED GUST
2017-03-22    05:50      19    18     94    | 226   25   31
2017-03-22    05:30      19    18     94    | 213   26   31
2017-03-22    05:20      19    18     94    | 229   26   31
2017-03-22    05:00      19    18     94    | 213   26   31

RENO TAF FORECAST:
KRNO 221120Z 2212/2312 VRB04KT P6SM SCT060 BKN120
     FM221700 16008KT P6SM VCSH SCT040 BKN080 BKN150
     FM222000 26009G16KT P6SM VCSH SCT040 BKN090
     FM230200 32011KT P6SM SCT035 SCT070

CARSON CITY TAF FORECAST:
KCXP 221120Z 2212/2312 24006KT P6SM SCT035 SCT060
     FM221600 17006KT P6SM VCSH SCT040 BKN060 BKN110
     FM222000 24011G19KT P6SM VCSH SCT030 BKN080
     FM230300 30009KT P6SM SCT035 SCT060

OUTLOOK FOR THE RENO-CARSON CITY-MINDEN AREA:
.THURSDAY...PARTLY CLOUDY IN THE MORNING THEN CLEARING. HIGHS
55 TO 60. LIGHT WINDS BECOMING WEST AROUND 10 MPH IN THE
AFTERNOON.

SUNRISE AND SUNSET
MARCH 22 2017.........SUNRISE   659 AM PDT   SUNSET   714 PM PDT
MARCH 23 2017.........SUNRISE   657 AM PDT   SUNSET   715 PM PDT


USA.gov is the U.S. government's official web portal to all federal, state and local government web resources and services.